Latest Weather Observations for Coonamble

IDN60801

Issued at 1:32 pm EST Thursday 28 May 2015 (issued every 30 minutes, with the page automatically refreshed every 10 minutes)

About weather observations | Map of weather stations | Latest weather observations for NSW | Other Formats
Station Details ID: 051161 Name: COONAMBLE AIRPORT AWS Lat: -30.98 Lon: 148.38 Height: 181.3 m
Data from the previous 72 hours. | See also: Recent months at Coonamble
Date/Time
EST
Temp
°C
App
Temp
°C
Dew
Point
Rel
Hum
%
Delta-T
°C
Wind Press
QNH
hPa
Press
MSL
hPa
Rain
since 9 am
mm
Dir
 
Spd
km/h
Gust
km/h
Spd
kts
Gust
kts
28/01:30pm 18.6 17.8 12.8 69 3.3 N 9 13 5 7 1022.3 1022.2 0.0
28/01:00pm 18.0 16.6 12.2 69 3.2 N 11 15 6 8 1022.6 1022.5 0.0
28/12:30pm 18.2 16.3 11.7 66 3.6 N 13 19 7 10 1023.0 1022.9 0.0
28/12:00pm 18.1 16.6 13.0 72 2.9 NNE 13 17 7 9 1023.6 1023.5 0.0
28/11:30am 17.8 16.1 12.5 71 3.0 NNE 13 17 7 9 1023.6 1023.5 0.0
28/11:00am 17.6 15.5 12.3 71 2.9 NNE 15 19 8 10 1024.2 1024.1 0.0
28/10:30am 17.1 15.1 12.8 76 2.4 NNE 15 19 8 10 1024.6 1024.5 0.0
28/10:00am 16.8 14.5 12.9 78 2.2 NNE 17 19 9 10 1024.8 1024.7 0.0
28/09:30am 16.8 14.9 14.3 85 1.4 NE 17 20 9 11 1024.5 1024.4 0.0
28/09:00am 15.4 14.1 14.8 96 0.3 NE 15 19 8 10 1024.4 1024.3 0.4
28/08:30am 15.0 14.3 14.4 96 0.3 NE 11 15 6 8 1024.2 1024.1 0.2
28/08:00am 14.7 14.3 14.2 97 0.3 NE 9 13 5 7 1024.0 1023.9 0.2
28/07:30am 14.4 13.2 13.9 97 0.3 ENE 13 15 7 8 1023.5 1023.4 0.2
28/07:00am 14.1 13.2 13.8 98 0.2 ENE 11 13 6 7 1023.3 1023.1 0.2
28/06:30am 14.2 14.3 13.9 98 0.2 E 6 9 3 5 1023.3 1023.1 0.2
28/06:00am 14.1 14.2 13.8 98 0.2 ENE 6 7 3 4 1023.0 1022.9 0.2
28/05:30am 14.0 14.0 13.7 98 0.2 E 6 7 3 4 1022.6 1022.5 0.2
28/05:00am 14.3 14.2 13.8 97 0.3 E 7 9 4 5 1022.3 1022.2 0.2
28/04:30am 14.4 14.3 13.9 97 0.3 ENE 7 9 4 5 1022.3 1022.2 0.2
28/04:00am 14.7 15.6 14.1 96 0.3 NNE 2 7 1 4 1022.5 1022.4 0.2
28/03:30am 14.8 14.8 14.3 97 0.3 NE 7 9 4 5 1022.5 1022.4 0.2
28/03:00am 14.7 14.7 14.2 97 0.3 NE 7 9 4 5 1022.6 1022.5 0.2
28/02:30am 14.7 14.3 14.2 97 0.3 NE 9 11 5 6 1022.7 1022.6 0.2
28/02:00am 14.8 14.1 14.3 97 0.3 ENE 11 15 6 8 1022.4 1022.3 0.2
28/01:30am 14.8 13.7 14.3 97 0.3 ENE 13 17 7 9 1022.8 1022.7 0.2
28/01:00am 15.2 14.5 14.4 95 0.5 E 11 15 6 8 1023.0 1022.9 0.2
28/12:30am 15.1 14.1 14.6 97 0.3 ENE 13 15 7 8 1023.0 1022.9 0.2
28/12:00am 15.3 14.4 14.8 97 0.3 E 13 17 7 9 1023.3 1023.1 0.2
 
Date/Time
EST
Temp
°C
App
Temp
°C
Dew
Point
Rel
Hum
%
Delta-T
°C
Wind Press
QNH
hPa
Press
MSL
hPa
Rain
since 9 am
mm
Dir
 
Spd
km/h
Gust
km/h
Spd
kts
Gust
kts
27/11:30pm 14.9 14.7 14.6 98 0.2 ESE 9 11 5 6 1023.4 1023.2 0.2
27/11:00pm 15.1 14.9 14.6 97 0.3 SE 9 11 5 6 1023.6 1023.5 0.0
27/10:30pm 15.4 15.3 14.9 97 0.3 ESE 9 13 5 7 1023.5 1023.4 0.0
27/10:00pm 15.4 14.9 14.9 97 0.3 SE 11 13 6 7 1023.3 1023.1 0.0
27/09:30pm 15.7 14.9 15.2 97 0.3 SSE 13 17 7 9 1023.4 1023.2 0.0
27/09:00pm 15.7 15.7 15.2 97 0.3 SE 9 11 5 6 1023.2 1023.0 0.0
27/08:30pm 15.7 15.7 15.2 97 0.3 SE 9 11 5 6 1023.2 1023.0 0.0
27/08:00pm 16.0 15.3 15.4 96 0.3 SE 13 17 7 9 1023.0 1022.9 0.0
27/07:30pm 16.0 15.7 15.5 97 0.3 SSE 11 13 6 7 1023.0 1022.9 0.0
27/07:00pm 16.3 16.6 15.0 92 0.8 SE 7 9 4 5 1022.9 1022.8 0.0
27/06:30pm 16.5 16.2 14.5 88 1.2 ESE 9 11 5 6 1022.5 1022.4 0.0
27/06:00pm 17.0 17.2 14.6 86 1.4 ESE 7 7 4 4 1022.3 1022.2 0.0
27/05:30pm 17.3 17.2 13.8 80 2.0 NE 7 9 4 5 1022.1 1022.0 0.0
27/05:00pm 18.2 17.9 12.6 70 3.1 E 6 7 3 4 1022.1 1022.0 0.0
27/04:30pm 18.7 18.6 13.8 73 2.8 ESE 7 7 4 4 1022.2 1022.1 0.0
27/04:00pm 19.4 19.0 12.4 64 3.9 SE 6 7 3 4 1022.4 1022.3 0.0
27/03:30pm 20.0 19.1 11.5 58 4.7 ENE 7 9 4 5 1022.3 1022.2 0.0
27/03:00pm 20.5 19.8 11.4 56 5.0 ENE 6 9 3 5 1022.5 1022.4 0.0
27/02:30pm 20.3 19.5 11.2 56 5.0 N 6 11 3 6 1022.6 1022.5 0.0
27/02:00pm 20.9 20.1 11.8 56 5.1 NNW 7 13 4 7 1022.8 1022.7 0.0
27/01:30pm 20.0 18.2 10.7 55 5.1 NNW 11 15 6 8 1023.0 1022.9 0.0
27/01:00pm 19.9 18.9 12.2 61 4.3 N 9 15 5 8 1023.5 1023.4 0.0
27/12:30pm 19.6 18.3 12.6 64 4.0 N 11 15 6 8 1024.1 1024.0 0.0
27/12:00pm 18.2 16.7 12.0 67 3.4 NNW 11 17 6 9 1024.7 1024.6 0.0
27/11:30am 18.3 17.0 12.5 69 3.3 N 11 15 6 8 1024.9 1024.8 0.0
27/11:00am 17.6 16.5 12.1 70 3.0 N 9 13 5 7 1025.5 1025.4 0.0
27/10:30am 17.2 16.0 12.9 76 2.4 NNE 11 15 6 8 1025.7 1025.6 0.0
27/10:00am 16.0 14.5 13.1 83 1.6 NNE 13 19 7 10 1025.8 1025.7 0.0
27/09:30am 14.8 12.3 11.2 79 1.9 NE 15 19 8 10 1025.9 1025.8 0.0
27/09:00am 14.0 12.0 11.5 85 1.3 NE 13 17 7 9 1025.7 1025.6 0.0
27/08:30am 12.4 10.1 11.6 95 0.4 NE 15 19 8 10 1025.2 1025.1 0.0
27/08:00am 11.3 8.7 10.8 97 0.3 NE 15 19 8 10 1025.1 1025.0 0.0
27/07:30am 10.5 7.7 10.0 97 0.3 NE 15 17 8 9 1024.9 1024.8 0.0
27/07:00am 9.4 6.4 9.1 98 0.1 ENE 15 17 8 9 1024.7 1024.6 0.0
27/06:30am 9.0 7.0 8.7 98 0.1 E 9 11 5 6 1024.8 1024.7 0.0
27/06:00am 8.3 6.1 8.0 98 0.1 E 9 11 5 6 1024.5 1024.4 0.0
27/05:30am 8.3 5.4 8.0 98 0.1 E 13 15 7 8 1024.2 1024.1 0.0
27/05:00am 8.4 5.9 8.1 98 0.1 E 11 13 6 7 1023.9 1023.8 0.0
27/04:30am 8.9 6.5 8.6 98 0.1 E 11 13 6 7 1024.1 1024.0 0.0
27/04:00am 9.9 8.1 9.6 98 0.2 SE 9 11 5 6 1024.4 1024.3 0.0
27/03:30am 10.2 8.1 9.9 98 0.2 ESE 11 13 6 7 1024.5 1024.4 0.0
27/03:00am 9.2 7.6 8.9 98 0.1 ESE 7 9 4 5 1024.6 1024.5 0.0
27/02:30am 8.8 6.8 8.5 98 0.1 ESE 9 11 5 6 1024.9 1024.8 0.0
27/02:00am 8.6 6.5 8.3 98 0.1 E 9 11 5 6 1024.8 1024.7 0.0
27/01:30am 9.3 7.0 9.0 98 0.1 E 11 15 6 8 1025.0 1024.9 0.0
27/01:00am 9.0 6.6 8.7 98 0.1 E 11 13 6 7 1025.4 1025.3 0.0
27/12:30am 9.1 7.1 8.8 98 0.1 E 9 13 5 7 1025.2 1025.1 0.0
27/12:00am 9.9 7.8 9.6 98 0.2 ESE 11 13 6 7 1025.4 1025.3 0.0
 
Date/Time
EST
Temp
°C
App
Temp
°C
Dew
Point
Rel
Hum
%
Delta-T
°C
Wind Press
QNH
hPa
Press
MSL
hPa
Rain
since 9 am
mm
Dir
 
Spd
km/h
Gust
km/h
Spd
kts
Gust
kts
26/11:30pm 9.5 7.3 9.2 98 0.1 ESE 11 13 6 7 1025.6 1025.5 0.0
26/11:00pm 10.1 8.4 9.8 98 0.2 SE 9 11 5 6 1025.8 1025.7 0.0
26/10:30pm 10.1 8.3 9.6 97 0.3 ESE 9 11 5 6 1026.0 1025.9 0.0
26/10:00pm 11.5 10.1 11.0 97 0.3 SSE 9 11 5 6 1026.0 1025.9 0.0
26/09:30pm 12.0 11.7 11.5 97 0.3 SE 4 7 2 4 1026.0 1025.9 0.0
26/09:00pm 12.4 11.7 11.9 97 0.3 ESE 7 9 4 5 1026.0 1025.9 0.0
26/08:30pm 12.4 10.9 11.9 97 0.3 SE 11 15 6 8 1026.1 1026.0 0.0
26/08:00pm 12.9 11.2 12.4 97 0.3 SE 13 15 7 8 1026.1 1026.0 0.0
26/07:30pm 13.3 11.8 11.9 91 0.8 SE 11 13 6 7 1026.2 1026.1 0.0
26/07:00pm 14.0 12.7 12.4 90 0.9 SE 11 13 6 7 1026.0 1025.9 0.0
26/06:30pm 14.2 13.2 12.4 89 1.0 SE 9 11 5 6 1025.8 1025.7 0.0
26/06:00pm 13.9 12.6 12.6 92 0.7 SE 11 13 6 7 1025.7 1025.6 0.0
26/05:30pm 14.8 14.2 12.3 85 1.4 ESE 7 9 4 5 1025.6 1025.5 0.0
26/05:00pm 15.3 14.7 12.2 82 1.7 ESE 7 9 4 5 1025.4 1025.3 0.0
26/04:30pm 16.7 17.6 12.8 78 2.2 CALM 0 0 0 0 1025.7 1025.6 0.0
26/04:00pm 17.3 18.1 12.6 74 2.6 CALM 0 4 0 2 1025.7 1025.6 0.0
26/03:30pm 17.5 16.9 12.4 72 2.8 E 7 9 4 5 1025.8 1025.7 0.0
26/03:00pm 17.7 16.9 11.7 68 3.3 ESE 7 9 4 5 1025.8 1025.7 0.0
26/02:30pm 17.8 16.5 11.4 66 3.5 E 9 11 5 6 1025.8 1025.7 0.0
26/02:00pm 17.6 16.1 10.7 64 3.7 ENE 9 9 5 5 1026.2 1026.1 0.0
26/01:30pm 17.7 16.6 10.6 63 3.8 NE 7 9 4 5 1026.9 1026.8 0.0
26/01:00pm 17.7 17.4 11.3 66 3.5 NNE 4 9 2 5 1027.3 1027.2 0.0
26/12:30pm 17.6 16.5 10.7 64 3.7 ENE 7 11 4 6 1027.6 1027.5 0.0
26/12:00pm 17.3 15.8 10.7 65 3.5 E 9 13 5 7 1028.0 1027.9 0.0
26/11:30am 16.2 14.9 11.4 73 2.6 ENE 9 13 5 7 1028.7 1028.7 0.0
26/11:00am 15.7 13.6 11.3 75 2.4 NE 13 17 7 9 1028.8 1028.8 0.0
26/10:30am 15.8 14.4 13.5 86 1.3 ENE 13 17 7 9 1029.1 1029.0 0.0
26/10:00am 13.7 12.9 12.8 94 0.5 ENE 9 13 5 7 1029.5 1029.4 0.0
26/09:30am 13.1 11.7 12.3 95 0.4 E 11 13 6 7 1029.6 1029.5 0.0
26/09:00am 12.3 10.8 11.8 97 0.3 E 11 15 6 8 1029.6 1029.5 0.0
26/08:30am 11.4 9.6 10.9 97 0.3 E 11 13 6 7 1029.1 1029.0 0.0
26/08:00am 10.4 8.3 9.9 97 0.3 ESE 11 13 6 7 1029.1 1029.0 0.0
26/07:30am 9.4 7.5 9.1 98 0.1 E 9 13 5 7 1029.0 1028.9 0.0
26/07:00am 9.1 6.7 8.8 98 0.1 E 11 15 6 8 1028.6 1028.6 0.0
26/06:30am 8.4 6.3 8.1 98 0.1 ESE 9 11 5 6 1028.6 1028.6 0.0
26/06:00am 8.3 5.8 8.0 98 0.1 E 11 13 6 7 1027.8 1027.7 0.0
26/05:30am 8.9 6.9 8.6 98 0.1 ESE 9 13 5 7 1027.9 1027.8 0.0
26/05:00am 8.1 5.5 7.8 98 0.1 E 11 13 6 7 1027.5 1027.4 0.0
26/04:30am 8.4 6.3 8.1 98 0.1 E 9 11 5 6 1027.8 1027.7 0.0
26/04:00am 8.3 5.8 8.0 98 0.1 E 11 13 6 7 1027.8 1027.7 0.0
26/03:30am 9.0 7.0 8.7 98 0.1 E 9 13 5 7 1028.1 1028.1 0.0
26/03:00am 9.6 7.0 9.3 98 0.1 ESE 13 15 7 8 1028.2 1028.2 0.0
26/02:30am 9.4 7.1 9.1 98 0.1 ESE 11 13 6 7 1028.4 1028.4 0.0
26/02:00am 9.2 7.3 8.9 98 0.1 SE 9 11 5 6 1028.7 1028.7 0.0
26/01:30am 10.2 8.5 9.9 98 0.2 SE 9 9 5 5 1029.0 1028.9 0.0
26/01:00am 10.0 8.8 9.7 98 0.2 SE 6 7 3 4 1029.1 1029.0 0.0
26/12:30am 10.4 9.3 10.1 98 0.2 ESE 6 7 3 4 1028.6 1028.6 0.0
26/12:00am 10.6 10.3 10.1 97 0.3 ESE 2 6 1 3 1029.4 1029.3 0.0
 
Date/Time
EST
Temp
°C
App
Temp
°C
Dew
Point
Rel
Hum
%
Delta-T
°C
Wind Press
QNH
hPa
Press
MSL
hPa
Rain
since 9 am
mm
Dir
 
Spd
km/h
Gust
km/h
Spd
kts
Gust
kts
25/11:30pm 11.1 10.2 10.8 98 0.2 SE 6 7 3 4 1029.9 1029.8 0.0
25/11:00pm 11.4 11.7 10.9 97 0.3 CALM 0 0 0 0 1029.8 1029.7 0.0
25/10:30pm 11.7 10.9 11.2 97 0.3 ESE 6 9 3 5 1029.6 1029.5 0.0
25/10:00pm 12.2 10.6 11.6 96 0.3 ESE 11 13 6 7 1029.5 1029.4 0.0
25/09:30pm 13.1 11.3 12.0 93 0.6 ESE 13 17 7 9 1029.3 1029.2 0.0
25/09:00pm 12.8 10.9 11.9 94 0.5 SE 13 15 7 8 1029.4 1029.3 0.0
25/08:30pm 13.1 11.4 12.3 95 0.4 SE 13 15 7 8 1029.5 1029.4 0.0
25/08:00pm 13.2 11.8 12.3 94 0.5 SE 11 13 6 7 1029.5 1029.4 0.0
25/07:30pm 13.8 12.7 12.0 89 1.0 ESE 9 11 5 6 1029.6 1029.5 0.0
25/07:00pm 14.3 12.9 12.3 88 1.1 SE 11 13 6 7 1029.5 1029.4 0.0
25/06:30pm 15.1 13.7 12.2 83 1.6 ESE 11 15 6 8 1029.2 1029.1 0.0
25/06:00pm 15.4 14.0 12.2 81 1.7 ESE 11 15 6 8 1029.3 1029.2 0.0
25/05:30pm 15.2 14.3 12.7 85 1.4 SE 9 9 5 5 1029.0 1028.9 0.0
25/05:00pm 16.0 15.4 12.4 79 2.0 E 7 9 4 5 1028.6 1028.6 0.0
25/04:30pm 17.3 16.7 12.2 72 2.8 E 7 7 4 4 1028.3 1028.3 0.0
25/04:00pm 17.9 17.1 11.7 67 3.4 ENE 7 9 4 5 1028.2 1028.2 0.0
25/03:30pm 18.4 16.7 10.0 58 4.5 NNE 9 13 5 7 1028.5 1028.5 0.0
25/03:00pm 18.5 16.9 10.1 58 4.5 NNE 9 11 5 6 1028.6 1028.6 0.0
25/02:30pm 18.5 17.0 10.6 60 4.3 N 9 13 5 7 1028.5 1028.5 0.0
25/02:00pm 18.5 16.3 9.3 55 4.8 N 11 13 6 7 1028.8 1028.8 0.0

Other Formats:

Comma delimited format used in spreadsheet applications
http://www.bom.gov.au/fwo/IDN60801/IDN60801.95718.axf

JavaScript Object Notation format (JSON) in row-major order
http://www.bom.gov.au/fwo/IDN60801/IDN60801.95718.json